Haliburton, Canada
Current Conditions -  °F | °C
As of 8:00 AM on Saturday 01 Nov 2014 (Local Time) from CYQA Reporting Station
Light Snow Light Snow  
Wind Chill: 21°   Ceiling: 6000
Heat Index: 30°   Visibility: 9mi
Dew Point: 28°   Wind: 10mph
Humidity: 93%   Direction: 340°NNW
Pressure: 30.19"   Gusts: NA
Location:  45.05°N, 78.51°W
Report Text: CYQA 011200Z AUTO 34009KT 330V030 9SM -SN OVC060 M01/M02 A3019 RMK SLP236
Loading
Personal Weather Stations






























Interactive Weather Map
Tropical Storm Tracking
New forecast layout! Learn more

10-Day Weather Forecast

Advertisements
Track Severe Weather on mobile